sensor_id;sensor_type;location;lat;lon;timestamp;pressure;altitude;pressure_sealevel;temperature;humidity
18678;BME280;9469;51.114;13.914;2023-03-24T00:03:42;97900.38;;;13.25;96.60
18678;BME280;9469;51.114;13.914;2023-03-24T00:08:50;97894.13;;;13.45;96.61
18678;BME280;9469;51.114;13.914;2023-03-24T00:13:58;97889.75;;;13.53;95.96
18678;BME280;9469;51.114;13.914;2023-03-24T00:19:04;97887.41;;;13.51;96.12
18678;BME280;9469;51.114;13.914;2023-03-24T00:24:10;97870.09;;;13.45;96.46
18678;BME280;9469;51.114;13.914;2023-03-24T00:29:18;97866.41;;;13.50;96.29
18678;BME280;9469;51.114;13.914;2023-03-24T00:34:23;97864.47;;;13.50;96.19
18678;BME280;9469;51.114;13.914;2023-03-24T00:39:29;97849.34;;;13.54;96.04
18678;BME280;9469;51.114;13.914;2023-03-24T00:44:38;97857.69;;;13.53;96.38
18678;BME280;9469;51.114;13.914;2023-03-24T00:49:46;97840.41;;;13.62;95.82
18678;BME280;9469;51.114;13.914;2023-03-24T00:54:54;97847.97;;;13.60;96.04
18678;BME280;9469;51.114;13.914;2023-03-24T01:00:08;97847.03;;;13.68;95.49
18678;BME280;9469;51.114;13.914;2023-03-24T01:05:18;97836.91;;;13.74;95.52
18678;BME280;9469;51.114;13.914;2023-03-24T01:10:24;97835.44;;;13.77;95.57
18678;BME280;9469;51.114;13.914;2023-03-24T01:15:33;97820.75;;;13.71;95.81
18678;BME280;9469;51.114;13.914;2023-03-24T01:20:40;97821.22;;;13.73;95.52
18678;BME280;9469;51.114;13.914;2023-03-24T01:25:50;97819.84;;;13.79;95.23
18678;BME280;9469;51.114;13.914;2023-03-24T01:30:58;97804.91;;;13.78;95.13
18678;BME280;9469;51.114;13.914;2023-03-24T01:36:08;97803.13;;;13.82;95.37
18678;BME280;9469;51.114;13.914;2023-03-24T01:41:14;97804.31;;;13.84;95.26
18678;BME280;9469;51.114;13.914;2023-03-24T01:46:22;97801.13;;;13.79;95.85
18678;BME280;9469;51.114;13.914;2023-03-24T01:51:35;97794.53;;;13.88;95.35
18678;BME280;9469;51.114;13.914;2023-03-24T01:56:46;97783.28;;;13.83;95.47
18678;BME280;9469;51.114;13.914;2023-03-24T02:01:56;97779.16;;;13.85;95.42
18678;BME280;9469;51.114;13.914;2023-03-24T02:07:24;97779.09;;;13.82;95.23
18678;BME280;9469;51.114;13.914;2023-03-24T02:12:32;97789.78;;;13.82;95.04
18678;BME280;9469;51.114;13.914;2023-03-24T02:17:52;97786.63;;;13.80;95.53
18678;BME280;9469;51.114;13.914;2023-03-24T02:28:43;97779.41;;;13.80;97.22
18678;BME280;9469;51.114;13.914;2023-03-24T02:39:38;97770.53;;;13.92;96.00
18678;BME280;9469;51.114;13.914;2023-03-24T02:44:51;97760.38;;;13.97;95.50
18678;BME280;9469;51.114;13.914;2023-03-24T02:50:10;97746.72;;;14.02;95.48
18678;BME280;9469;51.114;13.914;2023-03-24T02:55:26;97749.09;;;14.04;96.30
18678;BME280;9469;51.114;13.914;2023-03-24T03:00:35;97739.84;;;14.01;96.02
18678;BME280;9469;51.114;13.914;2023-03-24T03:05:50;97740.69;;;14.05;95.73
18678;BME280;9469;51.114;13.914;2023-03-24T03:11:04;97732.44;;;14.10;95.31
18678;BME280;9469;51.114;13.914;2023-03-24T03:16:17;97732.00;;;13.93;96.27
18678;BME280;9469;51.114;13.914;2023-03-24T03:21:28;97729.75;;;13.95;97.33
18678;BME280;9469;51.114;13.914;2023-03-24T03:26:37;97736.66;;;13.96;97.29
18678;BME280;9469;51.114;13.914;2023-03-24T03:31:47;97744.66;;;13.96;96.79
18678;BME280;9469;51.114;13.914;2023-03-24T03:37:04;97738.63;;;13.99;96.57
18678;BME280;9469;51.114;13.914;2023-03-24T03:42:14;97733.97;;;13.96;96.89
18678;BME280;9469;51.114;13.914;2023-03-24T03:47:21;97719.75;;;13.92;98.07
18678;BME280;9469;51.114;13.914;2023-03-24T03:52:29;97718.34;;;13.82;99.24
18678;BME280;9469;51.114;13.914;2023-03-24T03:57:37;97703.88;;;13.83;100.00
18678;BME280;9469;51.114;13.914;2023-03-24T04:03:09;97687.41;;;13.81;100.00
18678;BME280;9469;51.114;13.914;2023-03-24T04:08:24;97708.69;;;13.78;100.00
18678;BME280;9469;51.114;13.914;2023-03-24T04:14:05;97690.59;;;13.71;100.00
18678;BME280;9469;51.114;13.914;2023-03-24T04:19:31;97682.06;;;13.65;100.00
18678;BME280;9469;51.114;13.914;2023-03-24T04:24:44;97683.09;;;13.61;100.00
18678;BME280;9469;51.114;13.914;2023-03-24T04:30:09;97685.59;;;13.54;100.00
18678;BME280;9469;51.114;13.914;2023-03-24T04:35:22;97680.31;;;13.57;100.00
18678;BME280;9469;51.114;13.914;2023-03-24T04:40:59;97679.38;;;13.50;100.00
18678;BME280;9469;51.114;13.914;2023-03-24T04:46:11;97666.28;;;13.45;100.00
18678;BME280;9469;51.114;13.914;2023-03-24T04:51:29;97660.69;;;13.50;100.00
18678;BME280;9469;51.114;13.914;2023-03-24T04:56:40;97655.47;;;13.26;100.00
18678;BME280;9469;51.114;13.914;2023-03-24T05:02:04;97653.78;;;13.06;100.00
18678;BME280;9469;51.114;13.914;2023-03-24T05:07:33;97649.56;;;13.05;100.00
18678;BME280;9469;51.114;13.914;2023-03-24T05:12:43;97651.41;;;13.16;100.00
18678;BME280;9469;51.114;13.914;2023-03-24T05:17:54;97640.88;;;13.08;100.00
18678;BME280;9469;51.114;13.914;2023-03-24T05:22:59;97640.47;;;13.21;100.00
18678;BME280;9469;51.114;13.914;2023-03-24T05:28:11;97630.66;;;13.25;100.00
18678;BME280;9469;51.114;13.914;2023-03-24T05:33:19;97631.53;;;13.29;100.00
18678;BME280;9469;51.114;13.914;2023-03-24T05:38:29;97627.31;;;13.28;100.00
18678;BME280;9469;51.114;13.914;2023-03-24T05:43:34;97626.03;;;13.38;100.00
18678;BME280;9469;51.114;13.914;2023-03-24T05:48:48;97611.81;;;13.49;100.00
18678;BME280;9469;51.114;13.914;2023-03-24T05:53:54;97610.78;;;13.38;100.00
18678;BME280;9469;51.114;13.914;2023-03-24T05:59:27;97600.09;;;13.38;100.00
18678;BME280;9469;51.114;13.914;2023-03-24T06:05:08;97592.34;;;13.64;100.00
18678;BME280;9469;51.114;13.914;2023-03-24T06:10:17;97590.34;;;13.46;100.00
18678;BME280;9469;51.114;13.914;2023-03-24T06:15:25;97581.91;;;13.44;100.00
18678;BME280;9469;51.114;13.914;2023-03-24T06:20:55;97574.59;;;13.56;100.00
18678;BME280;9469;51.114;13.914;2023-03-24T06:26:10;97573.81;;;13.56;100.00
18678;BME280;9469;51.114;13.914;2023-03-24T06:31:29;97574.84;;;13.67;100.00
18678;BME280;9469;51.114;13.914;2023-03-24T06:36:39;97567.78;;;13.59;100.00
18678;BME280;9469;51.114;13.914;2023-03-24T06:41:44;97569.88;;;13.50;100.00
18678;BME280;9469;51.114;13.914;2023-03-24T06:46:50;97572.25;;;13.55;100.00
18678;BME280;9469;51.114;13.914;2023-03-24T06:51:59;97572.16;;;13.67;100.00
18678;BME280;9469;51.114;13.914;2023-03-24T06:57:09;97580.41;;;13.78;100.00
18678;BME280;9469;51.114;13.914;2023-03-24T07:02:44;97573.69;;;13.84;100.00
18678;BME280;9469;51.114;13.914;2023-03-24T07:07:52;97580.06;;;13.95;100.00
18678;BME280;9469;51.114;13.914;2023-03-24T07:13:21;97577.13;;;14.00;100.00
18678;BME280;9469;51.114;13.914;2023-03-24T07:18:36;97573.63;;;14.15;100.00
18678;BME280;9469;51.114;13.914;2023-03-24T07:23:45;97576.34;;;14.18;99.24
18678;BME280;9469;51.114;13.914;2023-03-24T07:28:53;97572.91;;;14.18;100.00
18678;BME280;9469;51.114;13.914;2023-03-24T07:34:10;97569.25;;;14.26;99.80
18678;BME280;9469;51.114;13.914;2023-03-24T07:39:20;97568.44;;;14.41;98.58
18678;BME280;9469;51.114;13.914;2023-03-24T07:44:26;97565.00;;;14.41;97.98
18678;BME280;9469;51.114;13.914;2023-03-24T07:49:34;97565.38;;;14.58;96.59
18678;BME280;9469;51.114;13.914;2023-03-24T07:54:45;97543.78;;;14.70;95.24
18678;BME280;9469;51.114;13.914;2023-03-24T08:00:12;97565.19;;;14.89;93.98
18678;BME280;9469;51.114;13.914;2023-03-24T08:05:31;97540.06;;;14.97;93.21
18678;BME280;9469;51.114;13.914;2023-03-24T08:11:03;97544.72;;;15.00;94.03
18678;BME280;9469;51.114;13.914;2023-03-24T08:16:08;97554.84;;;15.11;93.21
18678;BME280;9469;51.114;13.914;2023-03-24T08:21:14;97540.94;;;15.47;93.01
18678;BME280;9469;51.114;13.914;2023-03-24T08:26:23;97557.03;;;15.47;91.86
18678;BME280;9469;51.114;13.914;2023-03-24T08:31:31;97547.69;;;15.63;90.44
18678;BME280;9469;51.114;13.914;2023-03-24T08:36:38;97544.69;;;15.95;88.52
18678;BME280;9469;51.114;13.914;2023-03-24T08:41:47;97541.56;;;15.89;87.57
18678;BME280;9469;51.114;13.914;2023-03-24T08:46:53;97548.47;;;15.90;87.12
18678;BME280;9469;51.114;13.914;2023-03-24T08:51:59;97538.31;;;16.03;87.04
18678;BME280;9469;51.114;13.914;2023-03-24T08:57:06;97538.41;;;16.10;86.49
18678;BME280;9469;51.114;13.914;2023-03-24T09:02:12;97564.66;;;15.97;86.06
18678;BME280;9469;51.114;13.914;2023-03-24T09:07:17;97537.22;;;16.07;85.55
18678;BME280;9469;51.114;13.914;2023-03-24T09:12:27;97530.66;;;16.05;86.62
18678;BME280;9469;51.114;13.914;2023-03-24T09:17:32;97534.84;;;16.02;88.43
18678;BME280;9469;51.114;13.914;2023-03-24T09:22:38;97541.03;;;16.06;88.32
18678;BME280;9469;51.114;13.914;2023-03-24T09:27:48;97543.28;;;16.04;88.97
18678;BME280;9469;51.114;13.914;2023-03-24T09:32:53;97531.03;;;16.03;88.89
18678;BME280;9469;51.114;13.914;2023-03-24T09:38:00;97541.44;;;16.08;89.21
18678;BME280;9469;51.114;13.914;2023-03-24T09:43:13;97545.19;;;16.04;89.07
18678;BME280;9469;51.114;13.914;2023-03-24T09:48:30;97546.97;;;16.22;88.45
18678;BME280;9469;51.114;13.914;2023-03-24T09:53:42;97552.03;;;16.27;88.64
18678;BME280;9469;51.114;13.914;2023-03-24T09:59:02;97547.34;;;16.21;88.94
18678;BME280;9469;51.114;13.914;2023-03-24T10:04:13;97541.03;;;16.36;87.27
18678;BME280;9469;51.114;13.914;2023-03-24T10:09:28;97546.88;;;16.45;85.71
18678;BME280;9469;51.114;13.914;2023-03-24T10:14:48;97550.09;;;16.54;84.45
18678;BME280;9469;51.114;13.914;2023-03-24T10:20:04;97548.66;;;16.64;84.45
18678;BME280;9469;51.114;13.914;2023-03-24T10:25:20;97553.13;;;16.86;82.81
18678;BME280;9469;51.114;13.914;2023-03-24T10:30:32;97547.25;;;16.77;83.83
18678;BME280;9469;51.114;13.914;2023-03-24T10:35:45;97540.28;;;16.69;83.37
18678;BME280;9469;51.114;13.914;2023-03-24T10:40:54;97538.56;;;16.90;79.82
18678;BME280;9469;51.114;13.914;2023-03-24T10:46:02;97535.19;;;16.97;77.58
18678;BME280;9469;51.114;13.914;2023-03-24T10:51:13;97537.03;;;16.89;77.31
18678;BME280;9469;51.114;13.914;2023-03-24T10:56:39;97536.91;;;16.75;77.40
18678;BME280;9469;51.114;13.914;2023-03-24T11:01:56;97539.53;;;16.72;78.76
18678;BME280;9469;51.114;13.914;2023-03-24T11:07:13;97534.63;;;16.81;78.64
18678;BME280;9469;51.114;13.914;2023-03-24T11:12:23;97546.31;;;16.95;77.30
18678;BME280;9469;51.114;13.914;2023-03-24T11:17:36;97557.94;;;17.10;77.15
18678;BME280;9469;51.114;13.914;2023-03-24T11:22:54;97532.91;;;16.99;76.89
18678;BME280;9469;51.114;13.914;2023-03-24T11:28:02;97563.59;;;16.98;77.72
18678;BME280;9469;51.114;13.914;2023-03-24T11:33:18;97567.50;;;17.07;77.23
18678;BME280;9469;51.114;13.914;2023-03-24T11:38:37;97559.44;;;17.07;78.36
18678;BME280;9469;51.114;13.914;2023-03-24T11:43:47;97552.47;;;16.96;78.89
18678;BME280;9469;51.114;13.914;2023-03-24T11:48:58;97562.22;;;17.14;78.75
18678;BME280;9469;51.114;13.914;2023-03-24T11:54:08;97568.75;;;17.17;78.44
18678;BME280;9469;51.114;13.914;2023-03-24T11:59:31;97564.88;;;17.11;78.62
18678;BME280;9469;51.114;13.914;2023-03-24T12:04:50;97565.38;;;17.23;78.61
18678;BME280;9469;51.114;13.914;2023-03-24T12:10:10;97543.13;;;17.27;78.93
18678;BME280;9469;51.114;13.914;2023-03-24T12:15:28;97540.47;;;17.30;77.90
18678;BME280;9469;51.114;13.914;2023-03-24T12:20:43;97530.88;;;17.76;77.57
18678;BME280;9469;51.114;13.914;2023-03-24T12:26:18;97525.09;;;17.74;75.87
18678;BME280;9469;51.114;13.914;2023-03-24T12:31:51;97526.78;;;17.46;75.84
18678;BME280;9469;51.114;13.914;2023-03-24T12:37:08;97525.06;;;17.71;75.71
18678;BME280;9469;51.114;13.914;2023-03-24T12:42:24;97518.75;;;17.49;77.73
18678;BME280;9469;51.114;13.914;2023-03-24T12:48:00;97527.72;;;17.20;77.45
18678;BME280;9469;51.114;13.914;2023-03-24T12:53:32;97513.00;;;17.03;78.17
18678;BME280;9469;51.114;13.914;2023-03-24T12:58:45;97522.63;;;17.08;78.18
18678;BME280;9469;51.114;13.914;2023-03-24T13:03:56;97521.13;;;17.10;78.43
18678;BME280;9469;51.114;13.914;2023-03-24T13:09:12;97508.31;;;16.97;78.99
18678;BME280;9469;51.114;13.914;2023-03-24T13:14:26;97512.97;;;17.00;78.61
18678;BME280;9469;51.114;13.914;2023-03-24T13:19:42;97498.56;;;16.78;79.20
18678;BME280;9469;51.114;13.914;2023-03-24T13:24:52;97502.16;;;16.93;79.98
18678;BME280;9469;51.114;13.914;2023-03-24T13:30:10;97513.69;;;16.97;79.99
18678;BME280;9469;51.114;13.914;2023-03-24T13:35:32;97511.25;;;16.81;80.73
18678;BME280;9469;51.114;13.914;2023-03-24T13:40:49;97505.03;;;16.40;82.31
18678;BME280;9469;51.114;13.914;2023-03-24T13:45:59;97510.41;;;16.40;83.53
18678;BME280;9469;51.114;13.914;2023-03-24T13:51:15;97503.25;;;16.52;83.51
18678;BME280;9469;51.114;13.914;2023-03-24T13:56:33;97495.69;;;16.61;83.81
18678;BME280;9469;51.114;13.914;2023-03-24T14:01:41;97506.19;;;16.39;84.97
18678;BME280;9469;51.114;13.914;2023-03-24T14:06:48;97514.19;;;15.05;95.96
18678;BME280;9469;51.114;13.914;2023-03-24T14:12:19;97552.19;;;13.96;100.00
18678;BME280;9469;51.114;13.914;2023-03-24T14:17:28;97626.50;;;12.57;100.00
18678;BME280;9469;51.114;13.914;2023-03-24T14:22:39;97651.25;;;12.05;100.00
18678;BME280;9469;51.114;13.914;2023-03-24T14:27:49;97641.72;;;11.68;100.00
18678;BME280;9469;51.114;13.914;2023-03-24T14:32:59;97649.13;;;11.99;100.00
18678;BME280;9469;51.114;13.914;2023-03-24T14:38:20;97656.25;;;11.83;100.00
18678;BME280;9469;51.114;13.914;2023-03-24T14:43:52;97665.19;;;11.54;100.00
18678;BME280;9469;51.114;13.914;2023-03-24T14:49:04;97656.16;;;11.91;100.00
18678;BME280;9469;51.114;13.914;2023-03-24T14:54:16;97661.94;;;11.93;100.00
18678;BME280;9469;51.114;13.914;2023-03-24T14:59:49;97655.81;;;11.93;100.00
18678;BME280;9469;51.114;13.914;2023-03-24T15:05:16;97679.47;;;11.82;100.00
18678;BME280;9469;51.114;13.914;2023-03-24T15:10:24;97672.25;;;12.07;100.00
18678;BME280;9469;51.114;13.914;2023-03-24T15:15:45;97681.13;;;12.23;100.00
18678;BME280;9469;51.114;13.914;2023-03-24T15:20:53;97678.13;;;12.37;100.00
18678;BME280;9469;51.114;13.914;2023-03-24T15:25:58;97666.13;;;12.18;100.00
18678;BME280;9469;51.114;13.914;2023-03-24T15:31:07;97662.66;;;12.42;100.00
18678;BME280;9469;51.114;13.914;2023-03-24T15:36:14;97648.53;;;12.81;100.00
18678;BME280;9469;51.114;13.914;2023-03-24T15:41:21;97640.03;;;12.91;100.00
18678;BME280;9469;51.114;13.914;2023-03-24T15:46:30;97610.69;;;12.64;100.00
18678;BME280;9469;51.114;13.914;2023-03-24T15:51:48;97629.69;;;12.62;100.00
18678;BME280;9469;51.114;13.914;2023-03-24T15:57:11;97582.22;;;12.68;100.00
18678;BME280;9469;51.114;13.914;2023-03-24T16:02:29;97581.59;;;12.59;100.00
18678;BME280;9469;51.114;13.914;2023-03-24T16:07:35;97593.84;;;12.48;100.00
18678;BME280;9469;51.114;13.914;2023-03-24T16:12:42;97595.16;;;12.54;100.00
18678;BME280;9469;51.114;13.914;2023-03-24T16:17:51;97584.94;;;12.56;100.00
18678;BME280;9469;51.114;13.914;2023-03-24T16:22:57;97608.94;;;12.56;100.00
18678;BME280;9469;51.114;13.914;2023-03-24T16:28:09;97591.13;;;12.87;100.00
18678;BME280;9469;51.114;13.914;2023-03-24T16:33:18;97595.59;;;12.56;100.00
18678;BME280;9469;51.114;13.914;2023-03-24T16:38:28;97608.06;;;12.52;100.00
18678;BME280;9469;51.114;13.914;2023-03-24T16:43:36;97613.63;;;12.47;100.00
18678;BME280;9469;51.114;13.914;2023-03-24T16:48:46;97609.53;;;12.37;100.00
18678;BME280;9469;51.114;13.914;2023-03-24T16:53:53;97614.56;;;12.39;100.00
18678;BME280;9469;51.114;13.914;2023-03-24T16:58:58;97615.28;;;11.87;100.00
18678;BME280;9469;51.114;13.914;2023-03-24T17:04:12;97612.53;;;12.48;100.00
18678;BME280;9469;51.114;13.914;2023-03-24T17:09:17;97594.31;;;12.38;100.00
18678;BME280;9469;51.114;13.914;2023-03-24T17:14:23;97600.84;;;12.52;100.00
18678;BME280;9469;51.114;13.914;2023-03-24T17:19:30;97615.00;;;12.29;100.00
18678;BME280;9469;51.114;13.914;2023-03-24T17:24:35;97614.94;;;12.13;100.00
18678;BME280;9469;51.114;13.914;2023-03-24T17:29:45;97638.38;;;11.83;100.00
18678;BME280;9469;51.114;13.914;2023-03-24T17:34:53;97638.72;;;11.94;100.00
18678;BME280;9469;51.114;13.914;2023-03-24T17:39:58;97644.50;;;11.96;100.00
18678;BME280;9469;51.114;13.914;2023-03-24T17:45:11;97638.16;;;11.76;100.00
18678;BME280;9469;51.114;13.914;2023-03-24T17:50:19;97646.16;;;11.88;100.00
18678;BME280;9469;51.114;13.914;2023-03-24T17:55:26;97660.25;;;11.77;100.00
18678;BME280;9469;51.114;13.914;2023-03-24T18:00:32;97655.25;;;11.75;100.00
18678;BME280;9469;51.114;13.914;2023-03-24T18:05:39;97664.97;;;11.59;100.00
18678;BME280;9469;51.114;13.914;2023-03-24T18:10:45;97668.28;;;11.56;100.00
18678;BME280;9469;51.114;13.914;2023-03-24T18:15:54;97675.50;;;11.43;100.00
18678;BME280;9469;51.114;13.914;2023-03-24T18:21:13;97687.69;;;11.32;100.00
18678;BME280;9469;51.114;13.914;2023-03-24T18:26:20;97686.88;;;11.32;100.00
18678;BME280;9469;51.114;13.914;2023-03-24T18:31:30;97678.84;;;11.20;100.00
18678;BME280;9469;51.114;13.914;2023-03-24T18:36:38;97683.97;;;11.25;100.00
18678;BME280;9469;51.114;13.914;2023-03-24T18:41:45;97687.97;;;11.19;100.00
18678;BME280;9469;51.114;13.914;2023-03-24T18:46:52;97693.94;;;11.16;100.00
18678;BME280;9469;51.114;13.914;2023-03-24T18:52:03;97694.56;;;11.13;100.00
18678;BME280;9469;51.114;13.914;2023-03-24T18:57:13;97685.75;;;11.21;100.00
18678;BME280;9469;51.114;13.914;2023-03-24T19:02:22;97687.28;;;11.10;100.00
18678;BME280;9469;51.114;13.914;2023-03-24T19:07:31;97690.03;;;11.13;100.00
18678;BME280;9469;51.114;13.914;2023-03-24T19:12:38;97691.47;;;11.11;100.00
18678;BME280;9469;51.114;13.914;2023-03-24T19:17:44;97709.00;;;11.12;100.00
18678;BME280;9469;51.114;13.914;2023-03-24T19:22:54;97707.59;;;10.94;100.00
18678;BME280;9469;51.114;13.914;2023-03-24T19:28:00;97715.94;;;11.04;100.00
18678;BME280;9469;51.114;13.914;2023-03-24T19:33:07;97715.94;;;11.04;100.00
18678;BME280;9469;51.114;13.914;2023-03-24T19:38:18;97711.31;;;11.01;100.00
18678;BME280;9469;51.114;13.914;2023-03-24T19:43:25;97725.09;;;10.95;100.00
18678;BME280;9469;51.114;13.914;2023-03-24T19:48:31;97717.25;;;10.98;100.00
18678;BME280;9469;51.114;13.914;2023-03-24T19:53:39;97713.44;;;10.87;100.00
18678;BME280;9469;51.114;13.914;2023-03-24T19:58:44;97720.66;;;10.87;100.00
18678;BME280;9469;51.114;13.914;2023-03-24T20:03:50;97724.59;;;10.80;100.00
18678;BME280;9469;51.114;13.914;2023-03-24T20:08:58;97717.59;;;10.76;100.00
18678;BME280;9469;51.114;13.914;2023-03-24T20:14:07;97707.50;;;10.69;100.00
18678;BME280;9469;51.114;13.914;2023-03-24T20:19:19;97709.94;;;10.74;100.00
18678;BME280;9469;51.114;13.914;2023-03-24T20:24:29;97709.03;;;10.70;100.00
18678;BME280;9469;51.114;13.914;2023-03-24T20:29:41;97717.34;;;10.69;100.00
18678;BME280;9469;51.114;13.914;2023-03-24T20:34:47;97718.16;;;10.61;100.00
18678;BME280;9469;51.114;13.914;2023-03-24T20:39:57;97730.81;;;10.64;100.00
18678;BME280;9469;51.114;13.914;2023-03-24T20:45:05;97732.25;;;10.61;100.00
18678;BME280;9469;51.114;13.914;2023-03-24T20:50:14;97752.66;;;10.49;100.00
18678;BME280;9469;51.114;13.914;2023-03-24T20:55:23;97727.72;;;10.62;100.00
18678;BME280;9469;51.114;13.914;2023-03-24T21:00:31;97731.19;;;10.54;100.00
18678;BME280;9469;51.114;13.914;2023-03-24T21:05:38;97727.19;;;10.68;100.00
18678;BME280;9469;51.114;13.914;2023-03-24T21:10:48;97728.75;;;10.49;100.00
18678;BME280;9469;51.114;13.914;2023-03-24T21:15:59;97735.09;;;10.56;100.00
18678;BME280;9469;51.114;13.914;2023-03-24T21:21:09;97748.19;;;10.61;100.00
18678;BME280;9469;51.114;13.914;2023-03-24T21:26:17;97749.09;;;10.65;100.00
18678;BME280;9469;51.114;13.914;2023-03-24T21:31:25;97750.69;;;10.66;100.00
18678;BME280;9469;51.114;13.914;2023-03-24T21:36:31;97744.25;;;10.67;100.00
18678;BME280;9469;51.114;13.914;2023-03-24T21:41:44;97731.19;;;10.54;100.00
18678;BME280;9469;51.114;13.914;2023-03-24T21:46:49;97733.28;;;10.48;100.00
18678;BME280;9469;51.114;13.914;2023-03-24T21:51:59;97723.22;;;10.54;100.00
18678;BME280;9469;51.114;13.914;2023-03-24T21:57:08;97738.63;;;10.69;100.00
18678;BME280;9469;51.114;13.914;2023-03-24T22:02:13;97737.09;;;10.59;100.00
18678;BME280;9469;51.114;13.914;2023-03-24T22:07:19;97762.66;;;10.72;100.00
18678;BME280;9469;51.114;13.914;2023-03-24T22:12:28;97753.91;;;10.72;100.00
18678;BME280;9469;51.114;13.914;2023-03-24T22:17:33;97754.00;;;10.84;100.00
18678;BME280;9469;51.114;13.914;2023-03-24T22:22:40;97743.72;;;10.95;100.00
18678;BME280;9469;51.114;13.914;2023-03-24T22:27:48;97750.50;;;10.92;100.00
18678;BME280;9469;51.114;13.914;2023-03-24T22:32:56;97751.72;;;10.95;100.00
18678;BME280;9469;51.114;13.914;2023-03-24T22:38:02;97756.59;;;10.93;100.00
18678;BME280;9469;51.114;13.914;2023-03-24T22:43:12;97746.00;;;11.05;100.00
18678;BME280;9469;51.114;13.914;2023-03-24T22:48:18;97747.78;;;11.01;100.00
18678;BME280;9469;51.114;13.914;2023-03-24T22:53:24;97744.25;;;11.09;100.00
18678;BME280;9469;51.114;13.914;2023-03-24T22:58:31;97743.78;;;11.07;100.00
18678;BME280;9469;51.114;13.914;2023-03-24T23:03:37;97755.34;;;11.11;100.00
18678;BME280;9469;51.114;13.914;2023-03-24T23:08:42;97742.47;;;11.13;100.00
18678;BME280;9469;51.114;13.914;2023-03-24T23:13:54;97740.34;;;11.27;100.00
18678;BME280;9469;51.114;13.914;2023-03-24T23:19:03;97736.06;;;11.14;100.00
18678;BME280;9469;51.114;13.914;2023-03-24T23:24:09;97737.03;;;11.09;100.00
18678;BME280;9469;51.114;13.914;2023-03-24T23:29:19;97740.69;;;11.05;100.00
18678;BME280;9469;51.114;13.914;2023-03-24T23:34:27;97754.84;;;10.97;100.00
18678;BME280;9469;51.114;13.914;2023-03-24T23:39:32;97743.16;;;11.10;100.00
18678;BME280;9469;51.114;13.914;2023-03-24T23:44:40;97751.72;;;10.95;100.00
18678;BME280;9469;51.114;13.914;2023-03-24T23:49:46;97745.56;;;11.03;100.00
18678;BME280;9469;51.114;13.914;2023-03-24T23:54:52;97736.50;;;10.83;100.00
